createdAt,value
2022-09-11T06:42:40.287Z,30.58
2022-09-11T06:45:11.300Z,33.65
2022-09-11T06:47:44.886Z,25.40
2022-09-11T06:50:12.422Z,26.58
2022-09-11T06:53:16.642Z,32.42
2022-09-11T06:56:02.288Z,30.38
2022-09-11T06:58:34.379Z,31.27
2022-09-11T08:25:35.928Z,35.55
2022-09-11T08:28:30.127Z,36.35
2022-09-11T08:31:22.122Z,36.65
2022-09-11T08:34:03.939Z,30.38
2022-09-11T08:36:45.620Z,36.20
2022-09-11T08:39:20.437Z,36.10
2022-09-11T08:42:17.983Z,34.53
2022-09-11T08:45:25.028Z,32.92
2022-09-11T08:48:21.465Z,29.30
2022-09-11T08:51:35.411Z,33.42
2022-09-11T08:54:40.166Z,33.45
2022-09-11T09:11:16.207Z,32.50
2022-09-11T09:15:32.137Z,26.20
2022-09-11T12:50:35.321Z,24.88
2022-09-11T12:53:46.794Z,26.00
2022-09-11T12:57:13.844Z,24.55
2022-09-11T13:00:30.486Z,24.58
2022-09-11T13:03:39.792Z,25.63
2022-09-11T13:09:54.111Z,20.25
2022-09-11T13:12:57.365Z,22.30
2022-09-11T13:15:50.192Z,22.02
2022-09-11T13:18:54.461Z,21.65
2022-09-11T13:21:45.896Z,21.73
2022-09-11T13:24:55.730Z,18.50
2022-09-11T13:27:40.609Z,19.52
2022-09-11T13:30:22.491Z,17.45
2022-09-11T13:33:14.602Z,16.80
2022-09-11T13:35:48.136Z,16.13
2022-09-11T13:38:36.498Z,17.45
2022-09-11T13:41:18.249Z,15.43
2022-09-11T13:43:58.018Z,13.73
2022-09-11T13:46:34.783Z,13.70
2022-09-11T13:49:37.233Z,16.60
2022-09-11T13:52:12.554Z,14.32
2022-09-11T13:55:04.363Z,15.90
2022-09-11T13:57:32.290Z,13.55
2022-09-11T14:00:00.452Z,13.40
2022-09-11T14:02:53.717Z,15.18
2022-09-11T14:05:26.407Z,11.57
2022-09-11T14:08:25.164Z,11.13
2022-09-11T14:11:36.537Z,11.40
2022-09-11T14:14:34.193Z,11.88
2022-09-11T14:17:01.664Z,15.07
2022-09-11T14:20:02.867Z,12.10
2022-09-11T14:23:31.341Z,9.27
2022-09-11T14:26:20.501Z,10.25
2022-09-11T14:29:20.528Z,9.57
2022-09-11T14:32:21.257Z,8.80
2022-09-11T14:35:34.942Z,14.05
2022-09-11T14:38:24.077Z,12.80
2022-09-11T14:41:23.566Z,11.20
2022-09-11T14:44:21.645Z,12.43
2022-09-11T14:47:03.645Z,15.60
2022-09-11T14:49:42.526Z,12.05
2022-09-11T14:52:18.374Z,15.07
2022-09-11T14:54:47.472Z,16.02
2022-09-11T14:57:21.119Z,16.63
2022-09-11T14:59:51.429Z,13.07
2022-09-11T15:02:24.182Z,13.68
2022-09-11T15:04:54.241Z,15.10
2022-09-11T15:07:35.534Z,13.55
